BIRK/RKV METAR and TAF weather

Enter ICAO airport designator
Station Type Date Time Source
BIRK METAR 2019/04/25 22:00 UTC NOAA

BIRK 252200Z 10008KT 9999 -DZ BKN045 OVC098 10/04 Q0996


Station Type Date Time Source
BIRK Decoded METAR 2019/04/25 22:00 UTC NOAA

Reykjavik, Iceland (BIRK) 64-08N 021-54W 61M
Apr 25, 2019 - 06:00 PM EDT / 2019.04.25 2200 UTC
Wind: from the E (100 degrees) at 9 MPH (8 KT):0
Visibility: greater than 7 mile(s):0
Sky conditions: overcast
Weather: light drizzle
Temperature: 50 F (10 C)
Dew Point: 39 F (4 C)
Relative Humidity: 66%
Pressure (altimeter): 29.41 in. Hg (0996 hPa)
ob: BIRK 252200Z 10008KT 9999 -DZ BKN045 OVC098 10/04 Q0996
cycle: 22

Station Type Date Time Source
BIRK TAF 2019/04/25 21:30 UTC NOAA

TAF BIRK 251918Z 2521/2621 13014KT 9999 FEW020 SCT050 TX12/2615Z TN07/2621Z
BECMG 2522/2600 5000 RADZ BR SCT010 OVC020
BECMG 2605/2608 9999 -SHRA BKN020
TEMPO 2618/2621 7000 RADZ SCT012 OVC020

Example: see airport list